sensor_id;sensor_type;location;lat;lon;timestamp;pressure;altitude;pressure_sealevel;temperature;humidity
13800;BME280;6971;50.028;9.258;2023-04-25T00:03:04;98691.53;;;7.46;100.00
13800;BME280;6971;50.028;9.258;2023-04-25T00:08:05;98690.16;;;7.38;100.00
13800;BME280;6971;50.028;9.258;2023-04-25T00:13:06;98701.66;;;7.36;100.00
13800;BME280;6971;50.028;9.258;2023-04-25T00:18:08;98699.41;;;7.46;100.00
13800;BME280;6971;50.028;9.258;2023-04-25T00:23:08;98706.44;;;7.27;100.00
13800;BME280;6971;50.028;9.258;2023-04-25T00:28:11;98703.00;;;7.09;100.00
13800;BME280;6971;50.028;9.258;2023-04-25T00:33:12;98707.31;;;7.10;100.00
13800;BME280;6971;50.028;9.258;2023-04-25T00:38:12;98700.84;;;7.00;100.00
13800;BME280;6971;50.028;9.258;2023-04-25T00:43:13;98699.47;;;6.92;100.00
13800;BME280;6971;50.028;9.258;2023-04-25T00:48:17;98697.16;;;6.86;100.00
13800;BME280;6971;50.028;9.258;2023-04-25T00:53:17;98695.94;;;6.76;100.00
13800;BME280;6971;50.028;9.258;2023-04-25T00:58:20;98694.53;;;6.69;100.00
13800;BME280;6971;50.028;9.258;2023-04-25T01:03:20;98693.78;;;6.66;100.00
13800;BME280;6971;50.028;9.258;2023-04-25T01:08:23;98690.91;;;6.53;100.00
13800;BME280;6971;50.028;9.258;2023-04-25T01:13:24;98688.44;;;6.50;100.00
13800;BME280;6971;50.028;9.258;2023-04-25T01:18:25;98690.91;;;6.53;100.00
13800;BME280;6971;50.028;9.258;2023-04-25T01:23:25;98695.47;;;6.68;100.00
13800;BME280;6971;50.028;9.258;2023-04-25T01:28:27;98693.47;;;6.73;100.00
13800;BME280;6971;50.028;9.258;2023-04-25T01:33:29;98689.69;;;6.61;100.00
13800;BME280;6971;50.028;9.258;2023-04-25T01:38:31;98681.59;;;6.48;100.00
13800;BME280;6971;50.028;9.258;2023-04-25T01:43:31;98686.28;;;6.59;100.00
13800;BME280;6971;50.028;9.258;2023-04-25T01:48:32;98679.19;;;6.43;100.00
13800;BME280;6971;50.028;9.258;2023-04-25T01:53:33;98685.00;;;6.68;100.00
13800;BME280;6971;50.028;9.258;2023-04-25T01:58:34;98682.34;;;6.50;100.00
13800;BME280;6971;50.028;9.258;2023-04-25T02:03:37;98676.38;;;6.48;100.00
13800;BME280;6971;50.028;9.258;2023-04-25T02:08:38;98686.66;;;6.51;100.00
13800;BME280;6971;50.028;9.258;2023-04-25T02:13:38;98690.97;;;6.70;100.00
13800;BME280;6971;50.028;9.258;2023-04-25T02:18:38;98693.50;;;6.53;100.00
13800;BME280;6971;50.028;9.258;2023-04-25T02:23:39;98689.81;;;6.58;100.00
13800;BME280;6971;50.028;9.258;2023-04-25T02:28:39;98686.59;;;6.52;100.00
13800;BME280;6971;50.028;9.258;2023-04-25T02:33:40;98683.28;;;6.49;100.00
13800;BME280;6971;50.028;9.258;2023-04-25T02:38:40;98681.03;;;6.59;100.00
13800;BME280;6971;50.028;9.258;2023-04-25T02:43:41;98683.13;;;6.70;100.00
13800;BME280;6971;50.028;9.258;2023-04-25T02:48:41;98680.22;;;6.58;100.00
13800;BME280;6971;50.028;9.258;2023-04-25T02:53:42;98683.91;;;6.54;100.00
13800;BME280;6971;50.028;9.258;2023-04-25T02:58:42;98683.22;;;6.68;100.00
13800;BME280;6971;50.028;9.258;2023-04-25T03:03:42;98675.97;;;6.73;100.00
13800;BME280;6971;50.028;9.258;2023-04-25T03:08:43;98676.81;;;6.74;100.00
13800;BME280;6971;50.028;9.258;2023-04-25T03:13:43;98669.66;;;6.77;100.00
13800;BME280;6971;50.028;9.258;2023-04-25T03:18:44;98670.97;;;6.69;100.00
13800;BME280;6971;50.028;9.258;2023-04-25T03:23:44;98666.34;;;6.56;100.00
13800;BME280;6971;50.028;9.258;2023-04-25T03:28:44;98662.34;;;6.49;100.00
13800;BME280;6971;50.028;9.258;2023-04-25T03:33:44;98670.66;;;6.39;100.00
13800;BME280;6971;50.028;9.258;2023-04-25T03:38:45;98678.34;;;6.60;100.00
13800;BME280;6971;50.028;9.258;2023-04-25T03:43:45;98683.38;;;6.65;100.00
13800;BME280;6971;50.028;9.258;2023-04-25T03:48:46;98687.28;;;6.56;100.00
13800;BME280;6971;50.028;9.258;2023-04-25T03:53:46;98691.28;;;6.46;100.00
13800;BME280;6971;50.028;9.258;2023-04-25T03:58:46;98699.91;;;6.48;100.00
13800;BME280;6971;50.028;9.258;2023-04-25T04:03:47;98704.75;;;6.38;100.00
13800;BME280;6971;50.028;9.258;2023-04-25T04:08:47;98704.44;;;6.44;100.00
13800;BME280;6971;50.028;9.258;2023-04-25T04:13:48;98708.72;;;6.27;100.00
13800;BME280;6971;50.028;9.258;2023-04-25T04:18:48;98710.25;;;6.32;100.00
13800;BME280;6971;50.028;9.258;2023-04-25T04:23:49;98716.22;;;5.97;100.00
13800;BME280;6971;50.028;9.258;2023-04-25T04:28:50;98708.31;;;6.18;100.00
13800;BME280;6971;50.028;9.258;2023-04-25T04:33:54;98714.00;;;6.08;100.00
13800;BME280;6971;50.028;9.258;2023-04-25T04:38:54;98716.16;;;6.18;100.00
13800;BME280;6971;50.028;9.258;2023-04-25T04:43:56;98724.97;;;6.34;100.00
13800;BME280;6971;50.028;9.258;2023-04-25T04:48:57;98722.34;;;6.34;100.00
13800;BME280;6971;50.028;9.258;2023-04-25T04:53:58;98730.25;;;6.15;100.00
13800;BME280;6971;50.028;9.258;2023-04-25T04:59:02;98727.84;;;6.10;100.00
13800;BME280;6971;50.028;9.258;2023-04-25T05:04:03;98739.72;;;6.18;100.00
13800;BME280;6971;50.028;9.258;2023-04-25T05:09:04;98752.31;;;6.29;100.00
13800;BME280;6971;50.028;9.258;2023-04-25T05:14:05;98746.84;;;6.14;100.00
13800;BME280;6971;50.028;9.258;2023-04-25T05:19:05;98751.09;;;6.17;100.00
13800;BME280;6971;50.028;9.258;2023-04-25T05:24:06;98743.09;;;5.81;100.00
13800;BME280;6971;50.028;9.258;2023-04-25T05:29:06;98758.56;;;5.86;100.00
13800;BME280;6971;50.028;9.258;2023-04-25T05:34:06;98771.53;;;6.08;100.00
13800;BME280;6971;50.028;9.258;2023-04-25T05:39:07;98785.34;;;5.91;100.00
13800;BME280;6971;50.028;9.258;2023-04-25T05:44:09;98792.13;;;5.95;100.00
13800;BME280;6971;50.028;9.258;2023-04-25T05:49:09;98796.78;;;5.88;100.00
13800;BME280;6971;50.028;9.258;2023-04-25T05:54:10;98807.03;;;5.74;100.00
13800;BME280;6971;50.028;9.258;2023-04-25T05:59:11;98806.19;;;5.93;100.00
13800;BME280;6971;50.028;9.258;2023-04-25T06:04:11;98811.09;;;5.60;100.00
13800;BME280;6971;50.028;9.258;2023-04-25T06:09:11;98823.34;;;5.79;100.00
13800;BME280;6971;50.028;9.258;2023-04-25T06:14:12;98824.28;;;5.57;100.00
13800;BME280;6971;50.028;9.258;2023-04-25T06:19:12;98827.13;;;5.53;100.00
13800;BME280;6971;50.028;9.258;2023-04-25T06:24:12;98821.75;;;5.56;100.00
13800;BME280;6971;50.028;9.258;2023-04-25T06:29:13;98822.25;;;5.64;100.00
13800;BME280;6971;50.028;9.258;2023-04-25T06:34:13;98825.72;;;5.65;100.00
13800;BME280;6971;50.028;9.258;2023-04-25T06:39:14;98834.41;;;5.86;100.00
13800;BME280;6971;50.028;9.258;2023-04-25T06:44:14;98828.63;;;5.98;100.00
13800;BME280;6971;50.028;9.258;2023-04-25T06:49:15;98817.72;;;6.29;100.00
13800;BME280;6971;50.028;9.258;2023-04-25T06:54:15;98826.53;;;6.64;100.00
13800;BME280;6971;50.028;9.258;2023-04-25T06:59:16;98830.72;;;6.49;95.59
13800;BME280;6971;50.028;9.258;2023-04-25T07:04:16;98825.28;;;6.54;92.60
13800;BME280;6971;50.028;9.258;2023-04-25T07:09:17;98833.63;;;6.62;93.89
13800;BME280;6971;50.028;9.258;2023-04-25T07:14:17;98832.88;;;6.78;92.46
13800;BME280;6971;50.028;9.258;2023-04-25T07:19:17;98839.41;;;7.06;92.62
13800;BME280;6971;50.028;9.258;2023-04-25T07:24:17;98833.94;;;7.11;89.23
13800;BME280;6971;50.028;9.258;2023-04-25T07:29:18;98821.56;;;7.14;88.21
13800;BME280;6971;50.028;9.258;2023-04-25T07:34:18;98825.13;;;6.94;88.69
13800;BME280;6971;50.028;9.258;2023-04-25T07:39:18;98834.63;;;7.50;89.29
13800;BME280;6971;50.028;9.258;2023-04-25T07:44:19;98838.94;;;7.86;85.76
13800;BME280;6971;50.028;9.258;2023-04-25T07:49:20;98840.69;;;8.35;82.94
13800;BME280;6971;50.028;9.258;2023-04-25T07:54:22;98857.78;;;8.60;79.94
13800;BME280;6971;50.028;9.258;2023-04-25T07:59:23;98849.81;;;8.62;78.17
13800;BME280;6971;50.028;9.258;2023-04-25T08:04:23;98865.72;;;8.91;77.76
13800;BME280;6971;50.028;9.258;2023-04-25T08:09:25;98868.13;;;8.80;79.78
13800;BME280;6971;50.028;9.258;2023-04-25T08:14:25;98868.41;;;8.41;81.14
13800;BME280;6971;50.028;9.258;2023-04-25T08:19:26;98875.84;;;8.33;81.08
13800;BME280;6971;50.028;9.258;2023-04-25T08:24:26;98888.25;;;8.47;80.09
13800;BME280;6971;50.028;9.258;2023-04-25T08:29:26;98893.13;;;8.37;80.61
13800;BME280;6971;50.028;9.258;2023-04-25T08:34:28;98902.16;;;9.30;77.05
13800;BME280;6971;50.028;9.258;2023-04-25T08:39:28;98908.69;;;9.22;77.37
13800;BME280;6971;50.028;9.258;2023-04-25T08:44:30;98912.09;;;9.24;73.89
13800;BME280;6971;50.028;9.258;2023-04-25T08:49:32;98926.25;;;10.57;69.50
13800;BME280;6971;50.028;9.258;2023-04-25T08:54:32;98912.53;;;11.49;66.31
13800;BME280;6971;50.028;9.258;2023-04-25T08:59:33;98922.69;;;10.58;66.17
13800;BME280;6971;50.028;9.258;2023-04-25T09:04:33;98933.44;;;10.97;63.56
13800;BME280;6971;50.028;9.258;2023-04-25T09:09:33;98936.63;;;10.61;66.41
13800;BME280;6971;50.028;9.258;2023-04-25T09:14:34;98933.78;;;9.75;66.27
13800;BME280;6971;50.028;9.258;2023-04-25T09:19:36;98937.94;;;9.93;63.56
13800;BME280;6971;50.028;9.258;2023-04-25T09:24:44;98943.59;;;10.47;63.82
13800;BME280;6971;50.028;9.258;2023-04-25T09:29:46;98947.38;;;11.55;62.15
13800;BME280;6971;50.028;9.258;2023-04-25T09:34:48;98952.81;;;12.07;59.93
13800;BME280;6971;50.028;9.258;2023-04-25T09:39:53;98954.53;;;12.47;58.33
13800;BME280;6971;50.028;9.258;2023-04-25T09:44:55;98955.25;;;12.10;54.86
13800;BME280;6971;50.028;9.258;2023-04-25T09:49:56;98964.06;;;11.83;57.81
13800;BME280;6971;50.028;9.258;2023-04-25T09:54:56;98970.19;;;9.97;61.73
13800;BME280;6971;50.028;9.258;2023-04-25T10:00:00;98968.94;;;10.34;59.08
13800;BME280;6971;50.028;9.258;2023-04-25T10:05:02;98977.44;;;10.82;60.43
13800;BME280;6971;50.028;9.258;2023-04-25T10:10:04;98983.38;;;10.57;61.50
13800;BME280;6971;50.028;9.258;2023-04-25T10:15:06;98985.22;;;10.40;61.80
13800;BME280;6971;50.028;9.258;2023-04-25T10:20:09;98980.56;;;10.46;61.76
13800;BME280;6971;50.028;9.258;2023-04-25T10:25:11;98994.56;;;9.70;61.99
13800;BME280;6971;50.028;9.258;2023-04-25T10:30:14;99001.50;;;9.87;62.66
13800;BME280;6971;50.028;9.258;2023-04-25T10:40:21;99002.47;;;10.01;62.43
13800;BME280;6971;50.028;9.258;2023-04-25T10:45:22;98995.63;;;10.73;62.38
13800;BME280;6971;50.028;9.258;2023-04-25T10:50:37;98992.09;;;10.43;62.79
13800;BME280;6971;50.028;9.258;2023-04-25T10:55:51;99004.66;;;10.23;60.64
13800;BME280;6971;50.028;9.258;2023-04-25T11:00:52;99013.16;;;9.51;63.25
13800;BME280;6971;50.028;9.258;2023-04-25T11:05:52;99022.66;;;9.53;64.11
13800;BME280;6971;50.028;9.258;2023-04-25T11:10:53;99028.78;;;9.54;64.83
13800;BME280;6971;50.028;9.258;2023-04-25T11:15:54;99021.56;;;9.42;64.84
13800;BME280;6971;50.028;9.258;2023-04-25T11:20:55;99027.41;;;9.47;66.02
13800;BME280;6971;50.028;9.258;2023-04-25T11:25:56;99033.53;;;9.47;66.45
13800;BME280;6971;50.028;9.258;2023-04-25T11:30:56;99043.28;;;9.29;67.47
13800;BME280;6971;50.028;9.258;2023-04-25T11:35:57;99031.81;;;8.98;68.87
13800;BME280;6971;50.028;9.258;2023-04-25T11:40:58;99027.47;;;8.81;68.75
13800;BME280;6971;50.028;9.258;2023-04-25T11:45:58;99049.47;;;9.44;67.43
13800;BME280;6971;50.028;9.258;2023-04-25T11:51:00;99046.03;;;9.27;64.32
13800;BME280;6971;50.028;9.258;2023-04-25T11:56:00;99053.72;;;9.31;64.14
13800;BME280;6971;50.028;9.258;2023-04-25T12:01:01;99051.44;;;9.57;63.54
13800;BME280;6971;50.028;9.258;2023-04-25T12:06:03;99052.44;;;10.17;64.58
13800;BME280;6971;50.028;9.258;2023-04-25T12:11:04;99051.53;;;9.55;63.53
13800;BME280;6971;50.028;9.258;2023-04-25T12:16:04;99061.13;;;9.72;63.52
13800;BME280;6971;50.028;9.258;2023-04-25T12:21:05;99069.59;;;9.77;61.96
13800;BME280;6971;50.028;9.258;2023-04-25T12:26:06;99073.34;;;9.41;62.57
13800;BME280;6971;50.028;9.258;2023-04-25T12:31:07;99075.28;;;9.70;61.31
13800;BME280;6971;50.028;9.258;2023-04-25T12:36:08;99083.16;;;9.53;60.86
13800;BME280;6971;50.028;9.258;2023-04-25T12:41:10;99084.53;;;9.29;60.32
13800;BME280;6971;50.028;9.258;2023-04-25T12:46:10;99088.03;;;9.45;60.73
13800;BME280;6971;50.028;9.258;2023-04-25T12:51:11;99088.94;;;9.44;61.95
13800;BME280;6971;50.028;9.258;2023-04-25T12:56:11;99091.03;;;9.21;60.81
13800;BME280;6971;50.028;9.258;2023-04-25T13:01:12;99095.00;;;8.96;59.38
13800;BME280;6971;50.028;9.258;2023-04-25T13:06:14;99093.50;;;9.24;59.47
13800;BME280;6971;50.028;9.258;2023-04-25T13:11:15;99099.31;;;9.63;59.92
13800;BME280;6971;50.028;9.258;2023-04-25T13:16:15;99103.03;;;9.59;59.28
13800;BME280;6971;50.028;9.258;2023-04-25T13:21:16;99105.16;;;9.69;60.03
13800;BME280;6971;50.028;9.258;2023-04-25T13:26:16;99100.91;;;9.50;59.61
13800;BME280;6971;50.028;9.258;2023-04-25T13:31:16;99098.03;;;9.38;60.72
13800;BME280;6971;50.028;9.258;2023-04-25T13:36:17;99112.28;;;9.50;60.01
13800;BME280;6971;50.028;9.258;2023-04-25T13:41:17;99116.19;;;9.43;60.44
13800;BME280;6971;50.028;9.258;2023-04-25T13:46:18;99121.97;;;9.50;60.33
13800;BME280;6971;50.028;9.258;2023-04-25T13:51:19;99120.63;;;9.25;60.68
13800;BME280;6971;50.028;9.258;2023-04-25T13:56:19;99121.59;;;9.40;59.05
13800;BME280;6971;50.028;9.258;2023-04-25T14:01:22;99115.94;;;9.32;59.62
13800;BME280;6971;50.028;9.258;2023-04-25T14:06:23;99124.91;;;10.08;59.29
13800;BME280;6971;50.028;9.258;2023-04-25T14:11:24;99123.91;;;9.78;59.06
13800;BME280;6971;50.028;9.258;2023-04-25T14:16:25;99124.66;;;10.43;57.83
13800;BME280;6971;50.028;9.258;2023-04-25T14:21:28;99122.94;;;10.28;56.56
13800;BME280;6971;50.028;9.258;2023-04-25T14:26:29;99125.25;;;10.18;56.34
13800;BME280;6971;50.028;9.258;2023-04-25T14:31:30;99122.78;;;10.15;57.70
13800;BME280;6971;50.028;9.258;2023-04-25T14:36:30;99129.59;;;10.34;58.21
13800;BME280;6971;50.028;9.258;2023-04-25T14:41:31;99124.06;;;10.08;57.63
13800;BME280;6971;50.028;9.258;2023-04-25T14:46:31;99139.75;;;10.09;57.46
13800;BME280;6971;50.028;9.258;2023-04-25T14:51:32;99144.25;;;10.23;56.24
13800;BME280;6971;50.028;9.258;2023-04-25T14:56:32;99142.91;;;10.00;56.62
13800;BME280;6971;50.028;9.258;2023-04-25T15:01:32;99144.63;;;10.01;57.39
13800;BME280;6971;50.028;9.258;2023-04-25T15:06:33;99138.53;;;9.68;58.29
13800;BME280;6971;50.028;9.258;2023-04-25T15:11:33;99139.47;;;9.83;56.07
13800;BME280;6971;50.028;9.258;2023-04-25T15:16:34;99146.31;;;9.53;56.27
13800;BME280;6971;50.028;9.258;2023-04-25T15:21:34;99142.75;;;9.87;57.93
13800;BME280;6971;50.028;9.258;2023-04-25T15:26:35;99155.59;;;9.27;58.23
13800;BME280;6971;50.028;9.258;2023-04-25T15:31:35;99165.38;;;9.07;59.97
13800;BME280;6971;50.028;9.258;2023-04-25T15:36:36;99166.38;;;9.05;59.48
13800;BME280;6971;50.028;9.258;2023-04-25T15:41:38;99164.72;;;8.86;59.40
13800;BME280;6971;50.028;9.258;2023-04-25T15:46:39;99172.00;;;8.81;58.23
13800;BME280;6971;50.028;9.258;2023-04-25T15:51:40;99173.06;;;8.94;58.48
13800;BME280;6971;50.028;9.258;2023-04-25T15:56:40;99164.84;;;9.00;56.67
13800;BME280;6971;50.028;9.258;2023-04-25T16:01:40;99161.16;;;9.38;56.05
13800;BME280;6971;50.028;9.258;2023-04-25T16:06:41;99169.16;;;9.85;54.86
13800;BME280;6971;50.028;9.258;2023-04-25T16:11:41;99175.16;;;9.55;55.89
13800;BME280;6971;50.028;9.258;2023-04-25T16:16:41;99175.66;;;9.46;55.76
13800;BME280;6971;50.028;9.258;2023-04-25T16:21:43;99172.34;;;9.42;55.85
13800;BME280;6971;50.028;9.258;2023-04-25T16:26:44;99172.56;;;9.21;57.24
13800;BME280;6971;50.028;9.258;2023-04-25T16:31:44;99170.44;;;9.28;55.93
13800;BME280;6971;50.028;9.258;2023-04-25T16:36:46;99167.50;;;9.34;55.47
13800;BME280;6971;50.028;9.258;2023-04-25T16:41:47;99171.84;;;9.51;53.44
13800;BME280;6971;50.028;9.258;2023-04-25T16:46:47;99182.13;;;9.22;55.13
13800;BME280;6971;50.028;9.258;2023-04-25T16:51:48;99179.84;;;9.16;55.64
13800;BME280;6971;50.028;9.258;2023-04-25T16:56:48;99182.38;;;9.18;54.67
13800;BME280;6971;50.028;9.258;2023-04-25T17:01:49;99196.09;;;9.07;54.39
13800;BME280;6971;50.028;9.258;2023-04-25T17:06:49;99185.03;;;9.00;54.59
13800;BME280;6971;50.028;9.258;2023-04-25T17:11:52;99191.47;;;8.94;55.85
13800;BME280;6971;50.028;9.258;2023-04-25T17:16:52;99198.47;;;8.76;56.52
13800;BME280;6971;50.028;9.258;2023-04-25T17:21:52;99209.94;;;8.75;56.57
13800;BME280;6971;50.028;9.258;2023-04-25T17:26:53;99208.38;;;8.71;57.30
13800;BME280;6971;50.028;9.258;2023-04-25T17:31:55;99223.53;;;8.66;57.92
13800;BME280;6971;50.028;9.258;2023-04-25T17:36:56;99222.34;;;8.54;58.45
13800;BME280;6971;50.028;9.258;2023-04-25T17:41:56;99224.91;;;8.55;58.67
13800;BME280;6971;50.028;9.258;2023-04-25T17:46:57;99229.53;;;8.31;62.57
13800;BME280;6971;50.028;9.258;2023-04-25T17:51:57;99231.00;;;8.19;65.46
13800;BME280;6971;50.028;9.258;2023-04-25T17:56:58;99237.00;;;8.02;66.58
13800;BME280;6971;50.028;9.258;2023-04-25T18:01:59;99246.75;;;8.00;68.70
13800;BME280;6971;50.028;9.258;2023-04-25T18:07:00;99252.31;;;8.11;66.58
13800;BME280;6971;50.028;9.258;2023-04-25T18:12:01;99266.59;;;8.05;65.65
13800;BME280;6971;50.028;9.258;2023-04-25T18:17:02;99272.13;;;7.99;62.80
13800;BME280;6971;50.028;9.258;2023-04-25T18:22:03;99268.25;;;8.08;62.61
13800;BME280;6971;50.028;9.258;2023-04-25T18:27:04;99272.19;;;7.97;64.83
13800;BME280;6971;50.028;9.258;2023-04-25T18:32:05;99281.31;;;7.69;68.84
13800;BME280;6971;50.028;9.258;2023-04-25T18:37:05;99293.28;;;7.35;71.39
13800;BME280;6971;50.028;9.258;2023-04-25T18:42:08;99297.91;;;7.08;71.22
13800;BME280;6971;50.028;9.258;2023-04-25T18:47:08;99303.00;;;6.68;72.90
13800;BME280;6971;50.028;9.258;2023-04-25T18:52:09;99310.47;;;6.32;74.18
13800;BME280;6971;50.028;9.258;2023-04-25T18:57:11;99316.16;;;5.96;75.54
13800;BME280;6971;50.028;9.258;2023-04-25T19:02:14;99328.13;;;5.78;81.28
13800;BME280;6971;50.028;9.258;2023-04-25T19:07:15;99319.97;;;5.61;91.48
13800;BME280;6971;50.028;9.258;2023-04-25T19:12:16;99340.41;;;5.50;95.92
13800;BME280;6971;50.028;9.258;2023-04-25T19:17:16;99328.56;;;5.40;97.75
13800;BME280;6971;50.028;9.258;2023-04-25T19:22:17;99334.63;;;5.42;99.53
13800;BME280;6971;50.028;9.258;2023-04-25T19:27:17;99341.00;;;5.33;99.25
13800;BME280;6971;50.028;9.258;2023-04-25T19:32:17;99343.69;;;5.57;97.57
13800;BME280;6971;50.028;9.258;2023-04-25T19:37:18;99334.94;;;5.58;98.14
13800;BME280;6971;50.028;9.258;2023-04-25T19:42:18;99332.28;;;5.59;100.00
13800;BME280;6971;50.028;9.258;2023-04-25T19:47:18;99341.97;;;5.56;100.00
13800;BME280;6971;50.028;9.258;2023-04-25T19:52:19;99345.53;;;5.28;100.00
13800;BME280;6971;50.028;9.258;2023-04-25T19:57:20;99348.59;;;5.14;100.00
13800;BME280;6971;50.028;9.258;2023-04-25T20:02:20;99346.66;;;4.92;99.31
13800;BME280;6971;50.028;9.258;2023-04-25T20:07:21;99353.75;;;4.88;97.23
13800;BME280;6971;50.028;9.258;2023-04-25T20:12:22;99359.56;;;4.69;96.98
13800;BME280;6971;50.028;9.258;2023-04-25T20:17:23;99364.75;;;4.41;100.00
13800;BME280;6971;50.028;9.258;2023-04-25T20:22:23;99362.44;;;4.31;100.00
13800;BME280;6971;50.028;9.258;2023-04-25T20:27:24;99363.34;;;3.99;100.00
13800;BME280;6971;50.028;9.258;2023-04-25T20:32:25;99368.09;;;3.84;100.00
13800;BME280;6971;50.028;9.258;2023-04-25T20:37:25;99381.56;;;3.67;100.00
13800;BME280;6971;50.028;9.258;2023-04-25T20:42:26;99373.28;;;3.51;100.00
13800;BME280;6971;50.028;9.258;2023-04-25T20:47:27;99383.19;;;3.38;100.00
13800;BME280;6971;50.028;9.258;2023-04-25T20:52:28;99382.53;;;3.28;100.00
13800;BME280;6971;50.028;9.258;2023-04-25T20:57:29;99378.63;;;3.10;100.00
13800;BME280;6971;50.028;9.258;2023-04-25T21:02:30;99387.72;;;2.93;100.00
13800;BME280;6971;50.028;9.258;2023-04-25T21:07:30;99390.59;;;2.81;100.00
13800;BME280;6971;50.028;9.258;2023-04-25T21:12:31;99390.22;;;2.57;100.00
13800;BME280;6971;50.028;9.258;2023-04-25T21:17:31;99397.44;;;2.44;100.00
13800;BME280;6971;50.028;9.258;2023-04-25T21:22:32;99398.41;;;2.40;100.00
13800;BME280;6971;50.028;9.258;2023-04-25T21:27:32;99406.25;;;2.38;100.00
13800;BME280;6971;50.028;9.258;2023-04-25T21:32:33;99402.28;;;2.20;100.00
13800;BME280;6971;50.028;9.258;2023-04-25T21:37:35;99397.91;;;2.20;100.00
13800;BME280;6971;50.028;9.258;2023-04-25T21:42:36;99401.88;;;1.94;100.00
13800;BME280;6971;50.028;9.258;2023-04-25T21:47:36;99409.84;;;1.85;100.00
13800;BME280;6971;50.028;9.258;2023-04-25T21:52:37;99413.47;;;1.78;100.00
13800;BME280;6971;50.028;9.258;2023-04-25T21:57:37;99412.72;;;1.71;100.00
13800;BME280;6971;50.028;9.258;2023-04-25T22:02:38;99415.41;;;1.65;100.00
13800;BME280;6971;50.028;9.258;2023-04-25T22:07:39;99427.00;;;1.47;100.00
13800;BME280;6971;50.028;9.258;2023-04-25T22:12:43;99432.38;;;1.36;100.00
13800;BME280;6971;50.028;9.258;2023-04-25T22:17:44;99427.22;;;1.31;100.00
13800;BME280;6971;50.028;9.258;2023-04-25T22:22:46;99423.94;;;1.20;100.00
13800;BME280;6971;50.028;9.258;2023-04-25T22:27:46;99429.06;;;1.24;100.00
13800;BME280;6971;50.028;9.258;2023-04-25T22:32:47;99431.81;;;1.13;100.00
13800;BME280;6971;50.028;9.258;2023-04-25T22:37:47;99438.13;;;0.97;100.00
13800;BME280;6971;50.028;9.258;2023-04-25T22:42:48;99444.31;;;0.88;100.00
13800;BME280;6971;50.028;9.258;2023-04-25T22:47:48;99440.09;;;0.77;100.00
13800;BME280;6971;50.028;9.258;2023-04-25T22:52:48;99454.03;;;0.72;100.00
13800;BME280;6971;50.028;9.258;2023-04-25T22:57:49;99464.44;;;0.69;100.00
13800;BME280;6971;50.028;9.258;2023-04-25T23:02:49;99475.00;;;0.53;100.00
13800;BME280;6971;50.028;9.258;2023-04-25T23:07:50;99482.84;;;0.50;100.00
13800;BME280;6971;50.028;9.258;2023-04-25T23:12:50;99481.09;;;0.50;100.00
13800;BME280;6971;50.028;9.258;2023-04-25T23:17:51;99482.19;;;0.32;100.00
13800;BME280;6971;50.028;9.258;2023-04-25T23:22:51;99493.44;;;0.30;100.00
13800;BME280;6971;50.028;9.258;2023-04-25T23:27:52;99490.88;;;0.25;100.00
13800;BME280;6971;50.028;9.258;2023-04-25T23:32:53;99496.09;;;0.22;100.00
13800;BME280;6971;50.028;9.258;2023-04-25T23:37:53;99501.22;;;0.31;100.00
13800;BME280;6971;50.028;9.258;2023-04-25T23:42:53;99505.50;;;0.34;100.00
13800;BME280;6971;50.028;9.258;2023-04-25T23:47:54;99501.25;;;0.25;100.00
13800;BME280;6971;50.028;9.258;2023-04-25T23:52:55;99496.03;;;0.28;100.00
13800;BME280;6971;50.028;9.258;2023-04-25T23:57:55;99496.09;;;0.22;100.00
